createdAt,value
2022-10-17T00:01:06.232Z,100824.41
2022-10-17T00:03:35.828Z,100816.25
2022-10-17T00:06:21.815Z,100819.13
2022-10-17T00:08:49.318Z,100819.13
2022-10-17T00:11:20.272Z,100818.03
2022-10-17T00:13:50.167Z,100805.50
2022-10-17T00:16:37.156Z,100819.94
2022-10-17T00:19:07.274Z,100822.97
2022-10-17T00:21:35.068Z,100820.56
2022-10-17T00:24:02.587Z,100821.16
2022-10-17T00:26:30.280Z,100826.47
2022-10-17T00:28:58.188Z,100819.28
2022-10-17T00:31:25.755Z,100822.53
2022-10-17T00:33:53.598Z,100822.41
2022-10-17T00:36:23.966Z,100807.25
2022-10-17T00:38:54.285Z,100826.53
2022-10-17T00:41:25.320Z,100821.41
2022-10-17T00:43:52.681Z,100815.47
2022-10-17T00:46:21.774Z,100825.75
2022-10-17T00:48:52.672Z,100828.03
2022-10-17T00:51:27.523Z,100825.03
2022-10-17T00:53:56.536Z,100833.84
2022-10-17T00:56:24.149Z,100828.91
2022-10-17T00:58:52.369Z,100829.75
2022-10-17T01:01:20.098Z,100834.81
2022-10-17T01:03:47.653Z,100832.88
2022-10-17T01:06:15.125Z,100831.09
2022-10-17T01:08:42.905Z,100851.72
2022-10-17T01:11:29.144Z,100832.31
2022-10-17T01:14:25.483Z,100814.34
2022-10-17T01:17:11.966Z,100815.91
2022-10-17T01:19:50.701Z,100843.91
2022-10-17T01:22:30.227Z,100834.34
2022-10-17T01:25:12.829Z,100823.72
2022-10-17T01:27:49.537Z,100841.56
2022-10-17T01:30:44.822Z,100826.63
2022-10-17T01:33:32.790Z,100826.84
2022-10-17T01:36:13.090Z,100808.66
2022-10-17T01:38:46.093Z,100822.38
2022-10-17T01:41:40.677Z,100829.13
2022-10-17T01:44:28.263Z,100826.59
2022-10-17T01:47:04.601Z,100830.91
2022-10-17T01:49:35.141Z,100835.16
2022-10-17T01:52:14.912Z,100830.50
2022-10-17T01:54:44.241Z,100832.63
2022-10-17T01:57:20.514Z,100835.41
2022-10-17T01:59:51.875Z,100842.59
2022-10-17T02:02:21.291Z,100825.69
2022-10-17T02:04:51.539Z,100830.53
2022-10-17T02:07:19.247Z,100825.84
2022-10-17T02:09:47.284Z,100830.00
2022-10-17T02:12:56.381Z,100837.13
2022-10-17T02:15:44.954Z,100844.84
2022-10-17T02:18:41.787Z,100837.03
2022-10-17T02:21:14.580Z,100848.97
2022-10-17T02:23:54.051Z,100846.00
2022-10-17T02:26:47.584Z,100848.75
2022-10-17T02:29:25.775Z,100843.91
2022-10-17T02:32:18.068Z,100854.75
2022-10-17T02:34:50.800Z,100844.41
2022-10-17T02:37:25.519Z,100854.84
2022-10-17T02:39:56.238Z,100844.00
2022-10-17T02:42:26.368Z,100846.41
2022-10-17T02:44:59.148Z,100848.59
2022-10-17T02:47:32.065Z,100857.72
2022-10-17T02:50:00.250Z,100856.06
2022-10-17T02:52:36.637Z,100859.91
2022-10-17T02:55:18.578Z,100862.69
2022-10-17T02:57:54.576Z,100863.81
2022-10-17T03:00:23.842Z,100861.28
2022-10-17T03:02:53.107Z,100878.75
2022-10-17T03:05:23.441Z,100870.66
2022-10-17T03:07:51.774Z,100873.31
2022-10-17T03:10:19.724Z,100878.53
2022-10-17T03:12:47.199Z,100874.31
2022-10-17T03:15:15.135Z,100881.63
2022-10-17T03:17:43.057Z,100873.31
2022-10-17T03:20:11.193Z,100883.91
2022-10-17T03:22:38.789Z,100884.44
2022-10-17T03:25:06.692Z,100888.66
2022-10-17T03:27:34.432Z,100897.47
2022-10-17T03:30:02.323Z,100910.38
2022-10-17T03:32:34.200Z,100911.84
2022-10-17T03:35:02.732Z,100897.13
2022-10-17T03:37:30.905Z,100912.91
2022-10-17T03:39:58.989Z,100917.25
2022-10-17T03:42:26.547Z,100907.53
2022-10-17T03:44:54.050Z,100912.91
2022-10-17T03:47:21.584Z,100911.84
2022-10-17T03:49:49.305Z,100920.84
2022-10-17T03:52:16.756Z,100922.44
2022-10-17T03:54:44.294Z,100928.75
2022-10-17T03:57:12.069Z,100933.25
2022-10-17T03:59:39.617Z,100925.44
2022-10-17T04:02:07.229Z,100927.09
2022-10-17T04:04:34.661Z,100931.59
2022-10-17T04:07:02.355Z,100937.13
2022-10-17T04:09:30.172Z,100937.84
2022-10-17T04:11:57.836Z,100936.13
2022-10-17T04:14:25.417Z,100948.22
2022-10-17T04:16:53.644Z,100950.56
2022-10-17T04:19:21.265Z,100952.00
2022-10-17T04:21:48.813Z,100953.84
2022-10-17T04:24:16.515Z,100973.22
2022-10-17T04:26:44.181Z,100958.78
2022-10-17T04:29:12.046Z,100962.03
2022-10-17T04:31:39.569Z,100973.50
2022-10-17T04:34:06.997Z,100980.94
2022-10-17T04:36:34.527Z,100994.72
2022-10-17T04:39:03.661Z,101008.06
2022-10-17T04:41:31.706Z,100991.66
2022-10-17T04:43:59.478Z,100997.81
2022-10-17T04:46:27.130Z,101006.16
2022-10-17T04:48:54.951Z,101005.63
2022-10-17T04:51:24.618Z,101029.63
2022-10-17T04:53:54.904Z,101010.22
2022-10-17T04:56:24.711Z,101018.91
2022-10-17T04:58:52.681Z,101027.25
2022-10-17T05:01:23.133Z,101035.19
2022-10-17T05:03:50.960Z,101032.06
2022-10-17T05:06:24.615Z,101034.72
2022-10-17T05:08:52.293Z,101028.56
2022-10-17T05:11:27.570Z,101052.41
2022-10-17T05:13:57.990Z,101044.13
2022-10-17T05:16:26.455Z,101053.53
2022-10-17T05:18:56.612Z,101062.47
2022-10-17T05:21:26.534Z,101066.78
2022-10-17T05:23:54.138Z,101078.25
2022-10-17T05:26:22.409Z,101081.75
2022-10-17T05:28:52.427Z,101094.78
2022-10-17T05:31:20.374Z,101104.44
2022-10-17T05:33:48.098Z,101104.22
2022-10-17T05:36:15.828Z,101106.03
2022-10-17T05:38:43.439Z,101106.66
2022-10-17T05:41:11.235Z,101112.03
2022-10-17T05:43:38.956Z,101131.59
2022-10-17T05:46:07.093Z,101123.41
2022-10-17T05:48:34.940Z,101133.78
2022-10-17T05:51:08.867Z,101147.28
2022-10-17T05:53:40.741Z,101144.63
2022-10-17T05:56:10.370Z,101168.28
2022-10-17T05:59:00.707Z,101151.50
2022-10-17T06:01:29.109Z,101174.44
2022-10-17T06:03:57.045Z,101187.91
2022-10-17T06:06:24.591Z,101189.50
2022-10-17T06:08:52.385Z,101196.59
2022-10-17T06:11:20.117Z,101203.81
2022-10-17T06:13:47.530Z,101215.38
2022-10-17T06:16:15.050Z,101206.25
2022-10-17T06:18:42.765Z,101213.13
2022-10-17T06:21:12.215Z,101223.09
2022-10-17T06:23:39.843Z,101222.34
2022-10-17T06:26:07.790Z,101229.47
2022-10-17T06:28:36.097Z,101241.16
2022-10-17T06:31:08.890Z,101251.41
2022-10-17T06:33:37.242Z,101257.69
2022-10-17T06:36:06.894Z,101266.47
2022-10-17T06:38:35.236Z,101268.72
2022-10-17T06:41:22.936Z,101276.56
2022-10-17T06:43:50.640Z,101274.66
2022-10-17T06:46:19.657Z,101268.06
2022-10-17T06:48:47.099Z,101278.31
2022-10-17T06:51:14.649Z,101288.13
2022-10-17T06:53:42.492Z,101288.84
2022-10-17T06:56:10.660Z,101293.44
2022-10-17T06:58:39.745Z,101296.09
2022-10-17T07:01:11.176Z,101300.81
2022-10-17T07:03:40.221Z,101302.44
2022-10-17T07:06:07.904Z,101309.41
2022-10-17T07:08:35.363Z,101324.16
2022-10-17T07:11:11.123Z,101324.25
2022-10-17T07:13:39.675Z,101320.56
2022-10-17T07:16:08.058Z,101337.22
2022-10-17T07:18:35.736Z,101341.59
2022-10-17T07:21:04.115Z,101336.34
2022-10-17T07:23:33.752Z,101355.44
2022-10-17T07:26:03.319Z,101362.78
2022-10-17T07:28:30.856Z,101366.47
2022-10-17T07:31:07.175Z,101372.53
2022-10-17T07:33:35.179Z,101373.69
2022-10-17T07:36:05.193Z,101373.59
2022-10-17T07:38:32.897Z,101389.75
2022-10-17T07:41:02.792Z,101393.84
2022-10-17T07:43:30.879Z,101397.91
2022-10-17T07:45:58.760Z,101405.34
2022-10-17T07:48:26.404Z,101408.97
2022-10-17T07:50:54.069Z,101421.38
2022-10-17T07:53:21.974Z,101419.38
2022-10-17T07:55:49.838Z,101427.34
2022-10-17T07:58:17.777Z,101424.47
2022-10-17T08:00:48.573Z,101422.31
2022-10-17T08:03:16.591Z,101427.41
2022-10-17T08:05:44.098Z,101428.66
2022-10-17T08:08:11.922Z,101438.53
2022-10-17T08:10:39.750Z,101442.44
2022-10-17T08:13:07.540Z,101442.44
2022-10-17T08:15:37.747Z,101449.75
2022-10-17T08:18:05.524Z,101454.00
2022-10-17T08:20:33.527Z,101459.47
2022-10-17T08:23:01.106Z,101467.44
2022-10-17T08:25:28.630Z,101469.28
2022-10-17T08:27:56.557Z,101471.22
2022-10-17T08:30:24.437Z,101480.28
2022-10-17T08:32:52.193Z,101484.09
2022-10-17T08:35:21.886Z,101483.38
2022-10-17T08:37:49.801Z,101489.66
2022-10-17T08:40:22.585Z,101495.81
2022-10-17T08:42:56.526Z,101503.56
2022-10-17T08:45:36.562Z,101506.84
2022-10-17T08:48:13.583Z,101511.66
2022-10-17T08:50:46.580Z,101520.88
2022-10-17T08:53:32.013Z,101516.31
2022-10-17T08:56:07.215Z,101526.72
2022-10-17T08:58:38.047Z,101527.66
2022-10-17T09:01:28.045Z,101529.91
2022-10-17T09:04:01.665Z,101539.69
2022-10-17T09:06:37.394Z,101541.41
2022-10-17T09:09:17.286Z,101550.88
2022-10-17T09:11:54.074Z,101555.31
2022-10-17T09:14:58.808Z,101555.13
2022-10-17T09:17:38.881Z,101565.81
2022-10-17T09:20:18.789Z,101566.69
2022-10-17T09:22:59.846Z,101568.19
2022-10-17T09:25:28.154Z,101581.47
2022-10-17T09:28:10.745Z,101580.41
2022-10-17T09:30:55.890Z,101584.66
2022-10-17T09:33:35.137Z,101593.94
2022-10-17T09:36:22.914Z,101595.41
2022-10-17T09:38:56.580Z,101596.28
2022-10-17T09:41:44.857Z,101597.72
2022-10-17T09:44:16.028Z,101607.63
2022-10-17T09:46:55.254Z,101610.72
2022-10-17T09:49:37.986Z,101605.72
2022-10-17T09:52:30.673Z,101609.09
2022-10-17T09:55:04.569Z,101627.94
2022-10-17T09:57:56.433Z,101629.06
2022-10-17T10:00:31.778Z,101623.44
2022-10-17T10:03:28.514Z,101627.91
2022-10-17T10:06:03.033Z,101636.75
2022-10-17T10:08:36.119Z,101634.09
2022-10-17T10:11:13.458Z,101649.50
2022-10-17T10:13:43.152Z,101651.31
2022-10-17T10:16:30.194Z,101653.34
2022-10-17T10:18:58.283Z,101672.59
2022-10-17T10:21:27.593Z,101656.88
2022-10-17T10:24:04.274Z,101664.72
2022-10-17T10:26:53.508Z,101669.09
2022-10-17T10:29:34.125Z,101664.19
2022-10-17T10:32:07.390Z,101673.03
2022-10-17T10:34:36.098Z,101673.75
2022-10-17T10:37:05.504Z,101675.34
2022-10-17T10:39:38.041Z,101679.81
2022-10-17T10:42:17.203Z,101682.69
2022-10-17T10:44:44.954Z,101690.78
2022-10-17T10:47:20.649Z,101695.91
2022-10-17T10:49:52.780Z,101695.03
2022-10-17T10:52:30.452Z,101699.06
2022-10-17T10:55:17.555Z,101709.72
2022-10-17T10:57:48.012Z,101713.09
2022-10-17T11:00:24.518Z,101723.72
2022-10-17T11:03:01.839Z,101728.75
2022-10-17T11:06:17.135Z,101733.97
2022-10-17T11:09:00.474Z,101729.38
2022-10-17T11:11:39.924Z,101723.34
2022-10-17T11:14:16.711Z,101734.78
2022-10-17T11:17:29.030Z,101740.22
2022-10-17T11:19:59.087Z,101748.41
2022-10-17T11:22:37.334Z,101741.28
2022-10-17T11:25:17.388Z,101753.09
2022-10-17T11:27:44.949Z,101764.69
2022-10-17T11:30:16.741Z,101766.81
2022-10-17T11:32:54.156Z,101769.91
2022-10-17T11:35:25.251Z,101778.09
2022-10-17T11:38:10.723Z,101778.97
2022-10-17T11:40:43.566Z,101789.25
2022-10-17T11:43:11.068Z,101789.81
2022-10-17T11:45:47.083Z,101797.03
2022-10-17T11:48:25.533Z,101791.06
2022-10-17T11:53:55.751Z,101785.63
2022-10-17T11:56:42.754Z,101795.94
2022-10-17T11:59:10.438Z,101804.25
2022-10-17T12:01:47.123Z,101800.63
2022-10-17T12:04:20.424Z,101803.69
2022-10-17T12:07:13.724Z,101800.97
2022-10-17T12:10:13.367Z,101803.28
2022-10-17T12:12:41.127Z,101809.25
2022-10-17T12:15:11.599Z,101801.50
2022-10-17T12:17:45.400Z,101805.88
2022-10-17T12:20:25.738Z,101800.31
2022-10-17T12:23:03.049Z,101804.56
2022-10-17T12:28:21.074Z,101814.47
2022-10-17T12:31:05.853Z,101821.72
2022-10-17T12:33:48.466Z,101828.72
2022-10-17T12:36:18.730Z,101824.47
2022-10-17T12:38:50.058Z,101821.28
2022-10-17T12:41:40.642Z,101830.50
2022-10-17T12:44:14.097Z,101823.69
2022-10-17T12:47:01.857Z,101826.34
2022-10-17T12:49:47.488Z,101836.97
2022-10-17T12:52:18.097Z,101837.75
2022-10-17T12:55:12.969Z,101837.94
2022-10-17T12:57:48.532Z,101834.13
2022-10-17T13:00:33.586Z,101837.81
2022-10-17T13:03:19.389Z,101835.81
2022-10-17T13:05:56.860Z,101837.63
2022-10-17T13:08:29.478Z,101847.09
2022-10-17T13:10:57.833Z,101842.72
2022-10-17T13:13:45.272Z,101842.19
2022-10-17T13:16:39.061Z,101844.41
2022-10-17T13:19:15.313Z,101847.28
2022-10-17T13:21:59.933Z,101847.28
2022-10-17T13:24:39.193Z,101850.78
2022-10-17T13:27:27.713Z,101856.00
2022-10-17T13:29:58.855Z,101851.91
2022-10-17T13:32:35.074Z,101850.06
2022-10-17T13:35:13.232Z,101858.91
2022-10-17T13:37:50.230Z,101872.72
2022-10-17T13:40:49.598Z,101877.19
2022-10-17T13:43:19.341Z,101870.81
2022-10-17T13:45:50.525Z,101882.38
2022-10-17T13:48:23.780Z,101884.50
2022-10-17T13:50:56.390Z,101890.00
2022-10-17T13:53:31.036Z,101891.50
2022-10-17T13:56:16.144Z,101898.84
2022-10-17T13:58:49.362Z,101891.97
2022-10-17T14:01:19.095Z,101893.97
2022-10-17T14:03:50.182Z,101898.56
2022-10-17T14:06:26.986Z,101895.13
2022-10-17T14:09:07.425Z,101891.72
2022-10-17T14:11:44.210Z,101900.75
2022-10-17T14:14:24.819Z,101896.38
2022-10-17T14:16:52.950Z,101899.13
2022-10-17T14:19:30.846Z,101897.44
2022-10-17T14:22:23.581Z,101893.94
2022-10-17T14:24:53.401Z,101892.78
2022-10-17T14:27:26.989Z,101897.53
2022-10-17T14:30:00.969Z,101892.69
2022-10-17T14:32:34.819Z,101896.59
2022-10-17T14:35:30.201Z,101899.38
2022-10-17T14:37:57.517Z,101894.44
2022-10-17T14:40:27.363Z,101895.09
2022-10-17T14:42:57.941Z,101904.31
2022-10-17T14:45:35.830Z,101900.81
2022-10-17T14:48:10.499Z,101908.78
2022-10-17T14:50:38.643Z,101903.19
2022-10-17T14:53:12.209Z,101906.78
2022-10-17T14:55:54.199Z,101908.69
2022-10-17T14:58:27.973Z,101915.06
2022-10-17T15:02:13.522Z,101923.75
2022-10-17T15:04:20.532Z,101919.31
2022-10-17T15:06:57.247Z,101921.97
2022-10-17T15:09:28.597Z,101923.09
2022-10-17T15:12:01.228Z,101923.97
2022-10-17T15:14:29.070Z,101918.53
2022-10-17T15:16:56.562Z,101920.72
2022-10-17T15:19:24.126Z,101925.41
2022-10-17T15:21:52.038Z,101927.41
2022-10-17T15:24:19.622Z,101927.09
2022-10-17T15:26:47.136Z,101927.41
2022-10-17T15:29:16.150Z,101935.72
2022-10-17T15:31:43.864Z,101932.31
2022-10-17T15:34:11.361Z,101935.63
2022-10-17T15:36:48.349Z,101939.91
2022-10-17T15:39:16.094Z,101939.72
2022-10-17T15:41:44.199Z,101944.19
2022-10-17T15:44:11.966Z,101938.75
2022-10-17T15:46:41.748Z,101931.75
2022-10-17T15:49:15.010Z,101931.56
2022-10-17T15:51:42.832Z,101942.28
2022-10-17T15:54:10.350Z,101940.66
2022-10-17T15:56:41.319Z,101938.09
2022-10-17T15:59:15.775Z,101940.84
2022-10-17T16:01:43.970Z,101934.59
2022-10-17T16:04:15.177Z,101930.97
2022-10-17T16:06:43.584Z,101930.13
2022-10-17T16:09:11.314Z,101925.97
2022-10-17T16:11:43.465Z,101936.47
2022-10-17T16:14:16.519Z,101928.53
2022-10-17T16:16:44.763Z,101925.00
2022-10-17T16:19:12.673Z,101935.53
2022-10-17T16:21:41.761Z,101933.94
2022-10-17T16:24:12.721Z,101943.91
2022-10-17T16:26:41.139Z,101940.38
2022-10-17T16:29:10.185Z,101937.63
2022-10-17T16:31:40.488Z,101941.31
2022-10-17T16:34:08.977Z,101943.91
2022-10-17T16:36:36.542Z,101945.78
2022-10-17T16:39:04.518Z,101940.56
2022-10-17T16:41:37.320Z,101946.94
2022-10-17T16:44:07.753Z,101947.56
2022-10-17T16:46:37.457Z,101938.00
2022-10-17T16:49:05.765Z,101936.19
2022-10-17T16:51:35.845Z,101943.22
2022-10-17T16:54:04.645Z,101952.50
2022-10-17T16:56:33.041Z,101953.44
2022-10-17T16:59:01.453Z,101955.81
2022-10-17T17:01:29.475Z,101948.13
2022-10-17T17:03:57.635Z,101951.56
2022-10-17T17:06:28.496Z,101952.31
2022-10-17T17:08:57.164Z,101954.03
2022-10-17T17:11:26.905Z,101953.44
2022-10-17T17:13:56.816Z,101952.03
2022-10-17T17:16:26.267Z,101940.28
2022-10-17T17:18:56.366Z,101950.13
2022-10-17T17:21:24.321Z,101934.38
2022-10-17T17:23:52.039Z,101936.38
2022-10-17T17:26:22.023Z,101931.25
2022-10-17T17:28:50.762Z,101930.38
2022-10-17T17:31:24.347Z,101926.91
2022-10-17T17:33:53.417Z,101932.03
2022-10-17T17:36:41.354Z,101935.81
2022-10-17T17:39:12.473Z,101938.53
2022-10-17T17:41:41.574Z,101931.44
2022-10-17T17:44:15.753Z,101929.91
2022-10-17T17:46:45.188Z,101936.00
2022-10-17T17:49:12.945Z,101936.19
2022-10-17T17:51:41.898Z,101926.69
2022-10-17T17:54:11.666Z,101927.72
2022-10-17T17:56:39.563Z,101929.53
2022-10-17T17:59:07.669Z,101924.41
2022-10-17T18:01:39.272Z,101929.41
2022-10-17T18:04:09.064Z,101921.56
2022-10-17T18:06:38.511Z,101918.81
2022-10-17T18:09:08.084Z,101919.78
2022-10-17T18:11:37.531Z,101916.16
2022-10-17T18:14:07.840Z,101913.00
2022-10-17T18:16:37.192Z,101907.53
2022-10-17T18:19:07.280Z,101911.81
2022-10-17T18:21:36.432Z,101913.69
2022-10-17T18:24:05.171Z,101924.97
2022-10-17T18:26:33.459Z,101919.09
2022-10-17T18:29:01.815Z,101919.97
2022-10-17T18:31:32.308Z,101910.09
2022-10-17T18:34:02.971Z,101912.00
2022-10-17T18:36:31.959Z,101910.56
2022-10-17T18:39:00.298Z,101906.28
2022-10-17T18:41:28.753Z,101911.59
2022-10-17T18:43:57.122Z,101905.81
2022-10-17T18:46:27.807Z,101899.94
2022-10-17T18:48:56.187Z,101901.53
2022-10-17T18:51:25.616Z,101888.28
2022-10-17T18:53:55.636Z,101884.97
2022-10-17T18:56:23.682Z,101882.13
2022-10-17T18:58:51.941Z,101882.88
2022-10-17T19:01:22.838Z,101878.59
2022-10-17T19:03:52.351Z,101873.50
2022-10-17T19:06:22.806Z,101877.00
2022-10-17T19:08:50.397Z,101875.38
2022-10-17T19:11:21.510Z,101857.69
2022-10-17T19:13:50.213Z,101852.94
2022-10-17T19:16:21.387Z,101855.78
2022-10-17T19:18:52.722Z,101843.38
2022-10-17T19:21:22.049Z,101835.25
2022-10-17T19:23:52.434Z,101839.50
2022-10-17T19:26:20.884Z,101837.03
2022-10-17T19:28:52.238Z,101843.00
2022-10-17T19:31:26.531Z,101839.44
2022-10-17T19:33:56.197Z,101827.56
2022-10-17T19:36:29.067Z,101836.47
2022-10-17T19:39:00.976Z,101830.13
2022-10-17T19:41:28.941Z,101828.34
2022-10-17T19:43:57.357Z,101832.84
2022-10-17T19:46:27.251Z,101821.31
2022-10-17T19:48:55.272Z,101815.53
2022-10-17T19:51:25.100Z,101825.38
2022-10-17T19:53:54.833Z,101814.13
2022-10-17T19:56:25.084Z,101825.56
2022-10-17T19:58:54.405Z,101825.38
2022-10-17T20:01:27.996Z,101821.03
2022-10-17T20:03:56.555Z,101813.06
2022-10-17T20:06:24.854Z,101808.00
2022-10-17T20:08:52.845Z,101811.09
2022-10-17T20:11:23.372Z,101809.47
2022-10-17T20:13:51.580Z,101814.34
2022-10-17T20:16:22.015Z,101808.38
2022-10-17T20:18:51.666Z,101821.63
2022-10-17T20:21:22.023Z,101818.03
2022-10-17T20:23:50.633Z,101808.38
2022-10-17T20:26:38.607Z,101818.13
2022-10-17T20:29:12.128Z,101806.00
2022-10-17T20:31:41.312Z,101801.53
2022-10-17T20:34:11.922Z,101801.28
2022-10-17T20:36:39.853Z,101792.66
2022-10-17T20:39:09.871Z,101798.38
2022-10-17T20:41:37.555Z,101790.41
2022-10-17T20:44:06.922Z,101791.41
2022-10-17T20:46:37.808Z,101780.16
2022-10-17T20:49:14.003Z,101787.28
2022-10-17T20:51:41.882Z,101781.97
2022-10-17T20:54:09.775Z,101775.31
2022-10-17T20:56:38.632Z,101781.00
2022-10-17T20:59:08.454Z,101774.84
2022-10-17T21:01:36.308Z,101768.78
2022-10-17T21:06:53.576Z,101763.13
2022-10-17T21:09:22.194Z,101755.09
2022-10-17T21:11:55.727Z,101764.16
2022-10-17T21:14:33.804Z,101750.06
2022-10-17T21:17:04.954Z,101750.72
2022-10-17T21:19:33.601Z,101745.41
2022-10-17T21:22:01.747Z,101744.75
2022-10-17T21:24:29.551Z,101737.66
2022-10-17T21:26:57.643Z,101741.72
2022-10-17T21:29:25.262Z,101746.94
2022-10-17T21:31:52.999Z,101749.44
2022-10-17T21:34:23.903Z,101741.47
2022-10-17T21:36:51.843Z,101737.59
2022-10-17T21:39:19.844Z,101745.34
2022-10-17T21:41:47.532Z,101731.91
2022-10-17T21:44:17.628Z,101733.72
2022-10-17T21:46:46.097Z,101736.06
2022-10-17T21:49:17.066Z,101744.88
2022-10-17T21:51:45.419Z,101735.13
2022-10-17T21:54:13.644Z,101744.16
2022-10-17T21:56:41.836Z,101743.69
2022-10-17T21:59:09.790Z,101746.41
2022-10-17T22:01:43.437Z,101745.56
2022-10-17T22:04:14.366Z,101746.31
2022-10-17T22:06:43.882Z,101739.38
2022-10-17T22:09:22.809Z,101735.91
2022-10-17T22:11:53.398Z,101738.13
2022-10-17T22:14:22.764Z,101739.00
2022-10-17T22:16:50.733Z,101736.53
2022-10-17T22:19:22.481Z,101730.56
2022-10-17T22:21:50.745Z,101725.53
2022-10-17T22:26:48.927Z,101715.59
2022-10-17T22:29:17.048Z,101707.75
2022-10-17T22:31:44.886Z,101709.34
2022-10-17T22:34:14.827Z,101701.47
2022-10-17T22:36:42.795Z,101704.91
2022-10-17T22:39:11.132Z,101697.22
2022-10-17T22:41:38.610Z,101691.94
2022-10-17T22:44:06.359Z,101682.19
2022-10-17T22:46:34.167Z,101688.22
2022-10-17T22:49:01.918Z,101687.50
2022-10-17T22:51:29.764Z,101674.31
2022-10-17T22:53:57.219Z,101670.66
2022-10-17T22:56:24.938Z,101666.47
2022-10-17T22:58:53.419Z,101657.75
2022-10-17T23:01:24.942Z,101655.22
2022-10-17T23:03:52.905Z,101650.84
2022-10-17T23:06:21.163Z,101648.31
2022-10-17T23:08:49.373Z,101643.00
2022-10-17T23:11:17.288Z,101635.72
2022-10-17T23:13:44.910Z,101633.53
2022-10-17T23:16:12.425Z,101621.34
2022-10-17T23:18:40.101Z,101620.56
2022-10-17T23:21:08.373Z,101614.59
2022-10-17T23:23:36.850Z,101601.47
2022-10-17T23:26:14.556Z,101603.44
2022-10-17T23:28:43.530Z,101589.34
2022-10-17T23:31:18.587Z,101581.19
2022-10-17T23:33:48.027Z,101572.69
2022-10-17T23:36:17.666Z,101569.00
2022-10-17T23:38:46.881Z,101572.19
2022-10-17T23:41:14.549Z,101568.53
2022-10-17T23:43:42.168Z,101558.97
2022-10-17T23:46:10.145Z,101559.25
2022-10-17T23:48:38.626Z,101558.50
2022-10-17T23:51:07.985Z,101548.84
2022-10-17T23:53:36.150Z,101548.00
2022-10-17T23:56:05.227Z,101545.56
2022-10-17T23:58:32.871Z,101536.63
